Time;durP1;ratioP1;P1;durP2;ratioP2;P2;SDS_P1;SDS_P2;PMS_P1;PMS_P2;Temp;Humidity;BMP_temperature;BMP_pressure;BME280_temperature;BME280_humidity;BME280_pressure;Samples;Min_cycle;Max_cycle;Signal;HPM_P1;HPM_P2
2023/06/20 00:02:25;;;;;;;7.05;4.30;;;;;;;24.09;38.73;101046.41;16114043;19;130502;-49
2023/06/20 00:07:47;;;;;;;6.38;4.25;;;;;;;24.10;38.76;101048.09;16117133;19;130084;-44
2023/06/20 00:13:09;;;;;;;8.77;4.82;;;;;;;24.09;38.71;101042.78;16115190;19;129582;-45
2023/06/20 00:18:31;;;;;;;6.18;4.10;;;;;;;24.09;38.70;101045.59;16117002;19;133076;-44
2023/06/20 00:23:53;;;;;;;6.70;4.20;;;;;;;24.08;39.08;101044.72;16112240;19;129620;-43
2023/06/20 00:29:16;;;;;;;4.90;4.40;;;;;;;24.08;38.87;101041.13;16111236;19;131200;-44
2023/06/20 00:34:37;;;;;;;5.20;3.90;;;;;;;24.07;38.77;101031.06;16114633;19;129468;-44
2023/06/20 00:39:59;;;;;;;6.72;4.65;;;;;;;24.07;39.05;101031.06;16113844;19;129703;-49
2023/06/20 00:45:33;;;;;;;5.97;4.90;;;;;;;24.07;38.48;101025.47;16109772;19;131417;-52
2023/06/20 00:50:56;;;;;;;6.07;4.45;;;;;;;24.06;38.83;101023.78;16113922;19;130931;-53
2023/06/20 00:56:18;;;;;;;7.93;4.47;;;;;;;24.06;38.76;101015.41;16113641;19;130050;-54
2023/06/20 01:01:41;;;;;;;5.90;4.38;;;;;;;24.05;39.08;101016.53;16109920;19;130587;-49
2023/06/20 01:07:13;;;;;;;5.28;4.55;;;;;;;24.04;39.00;101015.69;16115571;19;130571;-46
2023/06/20 01:12:59;;;;;;;6.10;4.68;;;;;;;24.05;38.84;101020.16;16113689;19;131905;-51
2023/06/20 01:18:25;;;;;;;6.00;4.53;;;;;;;24.04;38.67;101003.66;16110790;19;129454;-50
2023/06/20 01:24:14;;;;;;;8.30;4.60;;;;;;;24.04;38.91;100993.34;16114196;19;131044;-50
2023/06/20 01:29:44;;;;;;;5.15;4.50;;;;;;;24.03;38.92;100990.81;16113664;19;131046;-46
2023/06/20 01:35:09;;;;;;;6.10;4.78;;;;;;;24.02;38.75;100992.78;16112697;19;130458;-44
2023/06/20 01:40:34;;;;;;;5.32;4.78;;;;;;;24.03;38.76;100990.81;16113928;19;130054;-44
2023/06/20 01:45:57;;;;;;;8.18;4.85;;;;;;;24.00;38.73;100992.22;16113609;19;130331;-44
2023/06/20 01:51:20;;;;;;;7.95;4.57;;;;;;;24.01;38.84;100998.63;16107554;19;130385;-46
2023/06/20 01:56:44;;;;;;;6.70;4.32;;;;;;;24.02;38.81;101011.50;16110979;19;129544;-44
2023/06/20 02:02:07;;;;;;;7.65;4.78;;;;;;;24.00;38.83;100997.81;16110764;19;133289;-45
2023/06/20 02:07:30;;;;;;;6.78;4.60;;;;;;;24.00;38.99;101017.38;16106775;19;130701;-48
2023/06/20 02:12:56;;;;;;;7.18;4.85;;;;;;;24.00;38.96;101003.41;16109070;19;131803;-44
2023/06/20 02:18:20;;;;;;;5.22;4.20;;;;;;;24.01;38.85;100990.25;16105799;19;130415;-45
2023/06/20 02:23:44;;;;;;;5.47;4.60;;;;;;;24.00;38.77;100994.19;16109202;19;130273;-48
2023/06/20 02:29:07;;;;;;;5.57;4.88;;;;;;;23.99;38.85;100984.13;16110355;19;131468;-46
2023/06/20 02:34:31;;;;;;;5.70;4.22;;;;;;;23.98;39.04;100969.31;16109923;19;131869;-47
2023/06/20 02:39:55;;;;;;;6.28;4.55;;;;;;;23.99;38.95;100972.94;16107244;19;130243;-47
2023/06/20 02:45:18;;;;;;;5.53;4.30;;;;;;;23.98;38.88;100966.50;16105845;19;129919;-44
2023/06/20 02:50:41;;;;;;;5.28;4.10;;;;;;;23.97;39.05;100970.41;16105727;19;129588;-47
2023/06/20 02:56:08;;;;;;;5.85;4.50;;;;;;;23.97;38.72;100985.25;16102076;19;130349;-45
2023/06/20 03:01:33;;;;;;;4.65;3.97;;;;;;;23.96;38.97;100991.94;16102255;19;135464;-44
2023/06/20 03:06:58;;;;;;;7.95;4.75;;;;;;;23.95;39.01;100990.28;16107486;19;129560;-45
2023/06/20 03:12:20;;;;;;;5.80;4.25;;;;;;;23.94;38.80;100999.78;16109244;19;130259;-46
2023/06/20 03:17:42;;;;;;;5.28;4.18;;;;;;;23.95;39.30;101006.19;16103628;19;130378;-44
2023/06/20 03:23:04;;;;;;;5.13;4.57;;;;;;;23.94;39.18;101024.91;16099875;19;130612;-44
2023/06/20 03:28:26;;;;;;;4.97;4.45;;;;;;;23.93;38.94;101023.25;16104429;19;133976;-44
2023/06/20 03:33:48;;;;;;;5.82;4.45;;;;;;;23.93;38.88;101031.63;16105140;19;133677;-51
2023/06/20 03:39:11;;;;;;;5.95;4.68;;;;;;;23.92;38.83;101018.78;16099499;19;131877;-50
2023/06/20 03:44:33;;;;;;;5.07;3.95;;;;;;;23.92;39.41;101015.97;16095892;19;130371;-51
2023/06/20 03:49:55;;;;;;;5.10;4.43;;;;;;;23.93;39.11;101025.22;16096512;19;129540;-50
2023/06/20 03:55:16;;;;;;;4.65;4.25;;;;;;;23.92;39.12;101020.75;16101302;19;129348;-49
2023/06/20 04:00:38;;;;;;;4.90;4.40;;;;;;;23.91;39.03;101031.06;16097205;19;130594;-49
2023/06/20 04:06:01;;;;;;;4.60;4.20;;;;;;;23.90;39.11;101032.16;16097566;19;129342;-49
2023/06/20 04:11:23;;;;;;;5.68;4.10;;;;;;;23.91;39.23;101010.69;16097530;19;130167;-46
2023/06/20 04:16:47;;;;;;;4.88;4.30;;;;;;;23.90;38.96;101012.63;16103683;19;130146;-43
2023/06/20 04:22:11;;;;;;;5.18;4.15;;;;;;;23.90;39.06;101000.63;16111600;19;131159;-45
2023/06/20 04:27:33;;;;;;;6.28;3.97;;;;;;;23.89;39.30;100996.97;16115008;19;130501;-47
2023/06/20 04:32:55;;;;;;;5.90;4.35;;;;;;;23.90;39.25;100992.25;16118852;19;130883;-43
2023/06/20 04:38:17;;;;;;;5.40;3.80;;;;;;;23.88;39.33;100972.13;16112093;19;129852;-45
2023/06/20 04:43:39;;;;;;;4.32;3.75;;;;;;;23.90;39.08;100981.06;16115640;19;129803;-44
2023/06/20 04:49:01;;;;;;;6.68;4.35;;;;;;;23.88;39.23;100964.56;16112872;19;130946;-47
2023/06/20 04:54:23;;;;;;;5.43;4.03;;;;;;;23.87;39.21;100957.31;16113446;19;130225;-46
2023/06/20 04:59:46;;;;;;;5.38;3.85;;;;;;;23.87;39.25;100951.75;16114674;19;130161;-46
2023/06/20 05:05:11;;;;;;;4.50;4.10;;;;;;;23.87;39.30;100965.72;16112768;19;130358;-44
2023/06/20 05:10:33;;;;;;;4.18;3.78;;;;;;;23.86;39.22;100965.97;16112523;19;129710;-44
2023/06/20 05:15:55;;;;;;;4.30;3.90;;;;;;;23.86;39.62;100969.63;16111116;19;130911;-42
2023/06/20 05:21:17;;;;;;;5.55;4.30;;;;;;;23.86;39.57;100994.75;16107606;19;130511;-46
2023/06/20 05:26:40;;;;;;;4.45;3.97;;;;;;;23.87;39.29;100992.78;16106187;19;131061;-49
2023/06/20 05:32:02;;;;;;;4.38;3.97;;;;;;;23.87;39.17;100996.44;16109369;19;129862;-48
2023/06/20 05:37:24;;;;;;;4.82;4.00;;;;;;;23.86;39.60;100991.97;16116510;19;129330;-45
2023/06/20 05:42:46;;;;;;;4.25;3.67;;;;;;;23.86;39.11;100982.72;16117883;19;134612;-45
2023/06/20 05:48:08;;;;;;;4.80;4.18;;;;;;;23.86;39.01;100980.78;16117427;19;129477;-50
2023/06/20 05:53:30;;;;;;;4.53;3.80;;;;;;;23.86;39.34;100972.41;16114320;19;130845;-46
2023/06/20 05:58:52;;;;;;;4.25;3.85;;;;;;;23.86;39.54;100963.19;16114934;19;129695;-48
2023/06/20 06:04:14;;;;;;;4.80;4.30;;;;;;;23.85;39.63;100967.94;16114747;19;129866;-45
2023/06/20 06:09:36;;;;;;;4.80;3.65;;;;;;;23.87;39.59;100964.84;16110634;19;130423;-48
2023/06/20 06:14:58;;;;;;;7.60;4.13;;;;;;;23.88;39.72;100956.19;16112874;19;131386;-45
2023/06/20 06:20:23;;;;;;;5.55;4.10;;;;;;;23.90;39.95;100948.34;16112281;19;129500;-46
2023/06/20 06:25:46;;;;;;;5.63;3.83;;;;;;;23.92;40.26;100948.09;16111731;19;130019;-48
2023/06/20 06:31:11;;;;;;;4.15;3.72;;;;;;;23.92;40.32;100951.72;16108537;19;129737;-46
2023/06/20 06:36:34;;;;;;;3.85;3.45;;;;;;;23.94;40.18;100962.59;16106316;19;130392;-44
2023/06/20 06:41:56;;;;;;;4.38;3.30;;;;;;;23.95;40.34;100951.16;16104607;19;130428;-45
2023/06/20 06:47:18;;;;;;;4.13;3.58;;;;;;;23.96;40.67;100946.38;16111548;19;130241;-49
2023/06/20 06:52:40;;;;;;;5.05;3.30;;;;;;;23.99;40.39;100956.19;16108434;19;129602;-48
2023/06/20 06:58:02;;;;;;;5.00;3.42;;;;;;;24.00;40.80;100955.06;16112959;19;130042;-44
2023/06/20 07:03:24;;;;;;;3.50;3.20;;;;;;;24.00;40.84;100941.91;16114722;19;130111;-50
2023/06/20 07:08:46;;;;;;;5.63;3.63;;;;;;;24.02;41.14;100938.81;16113595;19;135120;-49
2023/06/20 07:14:08;;;;;;;5.13;3.40;;;;;;;24.02;41.00;100938.81;16110418;19;129853;-45
2023/06/20 07:19:30;;;;;;;4.35;3.22;;;;;;;24.02;41.15;100936.88;16113089;19;129338;-46
2023/06/20 07:24:52;;;;;;;4.10;3.10;;;;;;;24.03;41.20;100938.56;16110898;19;131338;-49
2023/06/20 07:30:17;;;;;;;;;;;;;;;24.02;41.58;100944.41;16110133;19;129427;-50
2023/06/20 07:35:39;;;;;;;5.72;2.85;;;;;;;24.06;41.40;100948.34;16109171;19;129589;-46
2023/06/20 07:41:01;;;;;;;8.05;3.10;;;;;;;24.08;42.42;100932.94;16108077;19;131605;-46
2023/06/20 07:46:24;;;;;;;6.30;2.90;;;;;;;24.14;42.66;100936.56;16105004;19;130627;-44
2023/06/20 07:51:46;;;;;;;7.40;2.95;;;;;;;24.18;42.76;100937.69;16111676;19;129696;-43
2023/06/20 07:57:08;;;;;;;4.72;2.83;;;;;;;24.20;42.99;100938.22;16124451;19;130414;-44
2023/06/20 08:02:31;;;;;;;5.03;3.25;;;;;;;24.24;42.88;100936.59;16124202;19;129895;-47
2023/06/20 08:07:53;;;;;;;6.43;3.10;;;;;;;24.27;43.19;100941.59;16124892;19;130273;-44
2023/06/20 08:13:15;;;;;;;5.13;2.85;;;;;;;24.30;42.86;100936.56;16122307;19;129411;-43
2023/06/20 08:18:40;;;;;;;5.45;2.70;;;;;;;24.30;43.11;100944.94;16115849;19;130710;-45
2023/06/20 08:24:02;;;;;;;8.93;2.80;;;;;;;24.32;43.00;100937.09;16123300;19;129877;-42
2023/06/20 08:29:24;;;;;;;5.10;2.72;;;;;;;24.34;42.77;100929.28;16123239;19;131102;-44
2023/06/20 08:34:49;;;;;;;10.85;2.92;;;;;;;24.38;42.91;100930.34;16121702;19;129519;-43
2023/06/20 08:40:14;;;;;;;6.00;2.63;;;;;;;24.41;42.85;100938.19;16118843;19;130561;-45
2023/06/20 08:45:37;;;;;;;12.27;2.65;;;;;;;24.45;42.69;100944.88;16123765;19;129656;-43
2023/06/20 08:50:58;;;;;;;4.45;2.65;;;;;;;24.49;42.97;100950.75;16118318;19;130458;-46
2023/06/20 08:56:23;;;;;;;6.72;2.50;;;;;;;24.52;42.76;100941.78;16116273;19;129871;-43
2023/06/20 09:01:46;;;;;;;5.97;2.57;;;;;;;24.55;42.70;100936.44;16117755;19;130371;-44
2023/06/20 09:07:19;;;;;;;6.82;2.40;;;;;;;24.56;42.49;100926.94;16113710;19;129487;-43
2023/06/20 09:12:51;;;;;;;4.55;2.33;;;;;;;24.57;42.69;100934.19;16113249;19;130818;-45
2023/06/20 09:18:14;;;;;;;6.38;2.72;;;;;;;24.58;42.40;100938.69;16118370;19;130114;-43
2023/06/20 09:23:36;;;;;;;5.03;2.70;;;;;;;24.61;42.45;100933.63;16115565;19;132066;-45
2023/06/20 09:29:09;;;;;;;5.47;2.50;;;;;;;24.65;42.25;100929.97;16087338;19;130921;-48
2023/06/20 09:34:34;;;;;;;11.18;2.65;;;;;;;24.65;42.54;100923.53;16117917;19;132416;-45
2023/06/20 09:40:06;;;;;;;20.43;3.27;;;;;;;24.72;42.32;100932.47;16111860;19;131574;-46
2023/06/20 09:45:28;;;;;;;11.77;4.22;;;;;;;24.72;42.57;100924.06;16117770;19;130388;-43
2023/06/20 09:50:51;;;;;;;29.38;6.03;;;;;;;24.76;42.72;100919.53;16115487;19;129849;-44
2023/06/20 09:56:15;;;;;;;41.72;18.40;;;;;;;24.77;43.28;100910.03;16115029;19;130840;-43
2023/06/20 10:01:39;;;;;;;37.42;14.25;;;;;;;24.81;42.93;100905.53;16114391;19;131452;-44
2023/06/20 10:07:01;;;;;;;57.67;27.55;;;;;;;24.82;43.47;100901.63;16113021;19;130974;-46
2023/06/20 10:12:24;;;;;;;63.22;25.60;;;;;;;24.87;43.24;100898.75;16109582;19;129973;-47
2023/06/20 10:17:47;;;;;;;40.75;17.75;;;;;;;24.90;43.27;100902.16;16111004;19;130537;-44
2023/06/20 10:23:10;;;;;;;80.95;35.38;;;;;;;24.87;43.73;100887.56;16114938;19;129318;-48
2023/06/20 10:28:32;;;;;;;60.83;28.95;;;;;;;24.93;43.72;100885.59;16114203;19;135344;-43
2023/06/20 10:33:57;;;;;;;54.05;23.98;;;;;;;24.96;43.69;100887.00;16112393;19;129311;-46
2023/06/20 10:39:19;;;;;;;75.32;30.88;;;;;;;24.97;43.49;100874.69;16109742;19;130060;-45
2023/06/20 10:44:43;;;;;;;50.70;20.58;;;;;;;24.99;43.78;100872.41;16108774;19;129327;-48
2023/06/20 10:50:06;;;;;;;39.20;17.60;;;;;;;24.98;43.65;100865.16;16111873;19;132095;-45
2023/06/20 10:55:28;;;;;;;41.40;16.30;;;;;;;24.95;43.73;100851.75;16110041;19;129849;-43
2023/06/20 11:00:51;;;;;;;40.95;16.02;;;;;;;24.94;43.61;100841.69;16107557;19;130256;-44
2023/06/20 11:06:17;;;;;;;33.42;15.05;;;;;;;24.93;43.54;100840.00;16101023;19;130961;-44
2023/06/20 11:11:39;;;;;;;31.23;14.65;;;;;;;24.93;43.39;100823.22;16106704;19;129718;-44
2023/06/20 11:17:01;;;;;;;31.45;13.23;;;;;;;24.93;43.31;100832.44;16106291;19;130867;-43
2023/06/20 11:22:23;;;;;;;27.83;12.85;;;;;;;24.91;43.41;100833.88;16107880;19;129421;-43
2023/06/20 11:27:45;;;;;;;24.25;12.25;;;;;;;24.91;43.59;100831.06;16115457;19;131328;-43
2023/06/20 11:33:08;;;;;;;28.25;11.38;;;;;;;24.92;43.74;100833.59;16123077;19;129346;-48
2023/06/20 11:38:30;;;;;;;24.60;12.13;;;;;;;24.96;43.53;100845.03;16124575;19;131451;-47
2023/06/20 11:43:54;;;;;;;23.17;10.55;;;;;;;24.99;43.54;100833.22;16122139;19;132027;-46
2023/06/20 11:49:32;;;;;;;23.15;10.60;;;;;;;25.02;43.67;100832.66;16122343;19;129621;-47
2023/06/20 11:54:56;;;;;;;19.70;9.88;;;;;;;25.03;43.55;100832.38;16121060;19;129574;-43
2023/06/20 12:00:24;;;;;;;18.40;8.90;;;;;;;25.05;43.86;100843.28;16117516;19;130408;-45
2023/06/20 12:05:47;;;;;;;19.85;10.32;;;;;;;25.08;43.76;100839.91;16118739;19;130094;-44
2023/06/20 12:11:13;;;;;;;19.13;8.85;;;;;;;25.09;43.68;100838.78;16122740;19;130549;-50
2023/06/20 12:16:36;;;;;;;16.38;8.02;;;;;;;25.10;43.78;100834.00;16120621;19;129839;-47
2023/06/20 12:21:59;;;;;;;18.75;7.90;;;;;;;25.11;43.84;100830.06;16120882;19;131000;-47
2023/06/20 12:27:21;;;;;;;16.75;7.53;;;;;;;25.13;43.48;100828.63;16119438;19;129969;-43
2023/06/20 12:32:43;;;;;;;17.70;8.15;;;;;;;25.13;43.80;100834.22;16118294;19;131042;-47
2023/06/20 12:38:05;;;;;;;15.00;7.05;;;;;;;25.15;43.67;100809.59;16117183;19;130177;-44
2023/06/20 12:43:27;;;;;;;16.42;6.80;;;;;;;25.15;43.72;100792.78;16115891;19;129424;-48
2023/06/20 12:48:48;;;;;;;13.07;6.72;;;;;;;25.16;43.47;100783.25;16118586;19;131005;-46
2023/06/20 12:54:11;;;;;;;10.50;5.75;;;;;;;25.17;43.39;100784.13;16121904;19;129989;-48
2023/06/20 12:59:33;;;;;;;13.68;6.18;;;;;;;25.19;43.52;100781.84;16119068;19;129143;-46
2023/06/20 13:04:55;;;;;;;9.25;4.38;;;;;;;25.22;43.18;100763.63;16116719;19;130785;-44
2023/06/20 13:10:20;;;;;;;8.30;4.00;;;;;;;25.26;43.32;100762.75;16115792;19;130604;-47
2023/06/20 13:15:42;;;;;;;5.70;3.97;;;;;;;25.29;42.84;100759.31;16108561;19;130734;-46
2023/06/20 13:21:05;;;;;;;6.18;3.67;;;;;;;25.33;43.18;100754.81;16116920;19;130585;-43
2023/06/20 13:26:27;;;;;;;4.70;3.63;;;;;;;25.35;42.75;100760.13;16111801;19;129695;-45
2023/06/20 13:31:49;;;;;;;7.80;3.33;;;;;;;25.39;42.87;100754.78;16109183;19;129937;-46
2023/06/20 13:37:11;;;;;;;5.60;3.92;;;;;;;25.42;42.46;100757.81;16113906;19;130517;-43
2023/06/20 13:42:41;;;;;;;10.27;3.50;;;;;;;25.43;42.39;100748.28;16115554;19;130308;-45
2023/06/20 13:48:03;;;;;;;9.25;3.80;;;;;;;25.40;42.27;100732.06;16114707;19;129291;-45
2023/06/20 13:53:26;;;;;;;8.07;3.47;;;;;;;25.37;42.44;100752.25;16116155;19;131646;-45
2023/06/20 13:58:48;;;;;;;4.93;3.10;;;;;;;25.37;42.60;100759.81;16115878;19;129375;-46
2023/06/20 14:04:10;;;;;;;5.93;3.72;;;;;;;25.33;42.19;100774.41;16112284;19;130012;-46
2023/06/20 14:09:32;;;;;;;6.93;3.50;;;;;;;25.32;42.16;100758.75;16115387;19;135062;-45
2023/06/20 14:14:54;;;;;;;6.28;3.35;;;;;;;25.32;42.26;100752.31;16110573;19;129812;-49
2023/06/20 14:20:19;;;;;;;4.97;2.97;;;;;;;25.32;42.31;100746.72;16105625;19;131121;-50
2023/06/20 14:25:41;;;;;;;3.53;2.88;;;;;;;25.31;41.96;100742.25;16111271;19;130174;-45
2023/06/20 14:31:03;;;;;;;4.78;3.15;;;;;;;25.31;41.91;100750.66;16111973;19;130378;-47
2023/06/20 14:36:27;;;;;;;4.63;3.10;;;;;;;25.32;41.98;100760.72;16116424;19;129886;-46
2023/06/20 14:41:49;;;;;;;9.45;3.20;;;;;;;25.32;42.50;100769.13;16114251;19;129522;-50
2023/06/20 14:47:11;;;;;;;5.90;3.28;;;;;;;25.33;42.42;100779.19;16112250;19;129521;-46
2023/06/20 14:52:33;;;;;;;5.47;2.83;;;;;;;25.32;42.84;100769.13;16109425;19;131193;-46
2023/06/20 14:57:54;;;;;;;10.90;3.60;;;;;;;25.31;42.90;100775.84;16111284;19;131241;-47
2023/06/20 15:03:16;;;;;;;8.43;3.15;;;;;;;25.30;43.17;100782.56;16142501;19;129073;-44
2023/06/20 15:08:38;;;;;;;9.85;2.95;;;;;;;25.30;43.74;100788.19;16114025;19;129594;-44
2023/06/20 15:14:00;;;;;;;6.10;3.30;;;;;;;25.30;43.74;100789.00;16108675;19;130912;-47
2023/06/20 15:19:22;;;;;;;5.80;3.35;;;;;;;25.31;44.04;100792.66;16103733;19;131782;-45
2023/06/20 15:24:46;;;;;;;6.57;3.55;;;;;;;25.31;44.51;100806.66;16104938;19;129470;-45
2023/06/20 15:30:09;;;;;;;5.30;3.28;;;;;;;25.30;44.50;100821.78;16113700;19;129093;-45
2023/06/20 15:35:31;;;;;;;6.75;3.35;;;;;;;25.29;44.28;100836.91;16109514;19;129577;-49
2023/06/20 15:40:54;;;;;;;9.25;3.60;;;;;;;25.19;43.69;100854.63;16104930;19;129791;-45
2023/06/20 15:46:16;;;;;;;10.98;2.95;;;;;;;25.10;44.02;100857.25;16103427;19;129997;-42
2023/06/20 15:51:38;;;;;;;6.75;3.08;;;;;;;24.99;44.28;100853.69;16104159;19;129721;-43
2023/06/20 15:57:00;;;;;;;8.27;3.38;;;;;;;25.02;44.36;100867.09;16107213;19;130067;-43
2023/06/20 16:02:24;;;;;;;10.48;3.35;;;;;;;25.06;43.92;100853.34;16111261;19;129236;-43
2023/06/20 16:07:46;;;;;;;6.85;3.40;;;;;;;25.10;44.11;100862.84;16108184;19;130336;-42
2023/06/20 16:13:08;;;;;;;7.75;2.95;;;;;;;25.12;43.81;100876.53;16111253;19;131365;-45
2023/06/20 16:18:30;;;;;;;4.18;2.75;;;;;;;25.13;43.90;100869.81;16123999;19;129463;-51
2023/06/20 16:23:52;;;;;;;4.50;2.60;;;;;;;25.13;43.53;100865.03;16114466;19;129909;-51
2023/06/20 16:29:14;;;;;;;5.15;2.80;;;;;;;25.12;43.97;100865.31;16144035;19;130231;-50
2023/06/20 16:34:36;;;;;;;8.10;2.80;;;;;;;25.12;44.07;100873.72;16116980;19;129474;-49
2023/06/20 16:39:58;;;;;;;6.20;2.97;;;;;;;25.12;44.08;100868.94;16116572;19;131224;-53
2023/06/20 16:45:20;;;;;;;9.95;2.95;;;;;;;25.12;43.96;100884.94;16108717;19;129543;-50
2023/06/20 16:50:42;;;;;;;7.78;3.00;;;;;;;25.12;43.87;100868.94;16117347;19;129358;-44
2023/06/20 16:56:04;;;;;;;5.43;2.90;;;;;;;25.12;44.24;100859.72;16114177;19;130369;-44
2023/06/20 17:01:26;;;;;;;7.88;2.90;;;;;;;25.13;44.28;100858.59;16114101;19;130429;-45
2023/06/20 17:06:48;;;;;;;8.40;2.97;;;;;;;25.13;44.17;100853.00;16113285;19;130261;-44
2023/06/20 17:12:10;;;;;;;7.13;3.42;;;;;;;25.11;44.47;100858.06;16117718;19;130790;-47
2023/06/20 17:17:32;;;;;;;9.25;3.17;;;;;;;24.99;44.61;100866.81;16113411;19;133079;-47
2023/06/20 17:22:55;;;;;;;5.63;3.03;;;;;;;24.99;44.89;100889.19;16114656;19;130765;-46
2023/06/20 17:28:19;;;;;;;6.32;3.22;;;;;;;25.01;44.44;100909.34;16113009;19;131010;-44
2023/06/20 17:33:40;;;;;;;11.43;3.20;;;;;;;24.99;44.58;100934.84;16113794;19;130573;-43
2023/06/20 17:39:02;;;;;;;6.35;3.10;;;;;;;24.99;44.47;100957.22;16112218;19;132077;-42
2023/06/20 17:44:24;;;;;;;8.23;3.10;;;;;;;25.00;44.31;100969.25;16116011;19;130483;-42
2023/06/20 17:49:48;;;;;;;7.05;2.80;;;;;;;24.97;44.59;100953.06;16114488;19;129995;-43
2023/06/20 17:55:10;;;;;;;4.40;2.90;;;;;;;24.97;44.32;100969.84;16114498;19;129571;-44
2023/06/20 18:00:32;;;;;;;5.93;2.92;;;;;;;24.95;44.33;100988.88;16112454;19;131723;-43
2023/06/20 18:05:54;;;;;;;9.05;3.22;;;;;;;24.91;44.73;100993.38;16110411;19;130069;-43
2023/06/20 18:11:16;;;;;;;4.72;3.00;;;;;;;24.90;44.36;101002.88;16109449;19;130848;-45
2023/06/20 18:16:38;;;;;;;4.78;2.67;;;;;;;24.87;44.49;100999.50;16108570;19;130127;-45
2023/06/20 18:22:00;;;;;;;8.35;2.75;;;;;;;24.90;44.62;100991.69;16108503;19;130409;-45
2023/06/20 18:27:23;;;;;;;19.30;3.80;;;;;;;24.88;44.83;100973.22;16107185;19;130463;-45
2023/06/20 18:32:45;;;;;;;9.70;3.33;;;;;;;24.90;44.69;100958.97;16112377;19;130547;-42
2023/06/20 18:38:10;;;;;;;10.70;3.08;;;;;;;24.93;44.98;100965.94;16105684;19;129363;-53
2023/06/20 18:43:32;;;;;;;8.98;3.00;;;;;;;24.95;45.27;100986.91;16113558;19;130814;-53
2023/06/20 18:48:54;;;;;;;9.50;2.83;;;;;;;24.98;45.45;101017.13;16101373;19;131021;-52
2023/06/20 18:54:17;;;;;;;16.05;3.67;;;;;;;24.97;45.44;101026.63;16105810;19;130619;-49
2023/06/20 18:59:39;;;;;;;12.57;3.40;;;;;;;25.00;44.99;101036.41;16108590;19;131229;-53
2023/06/20 19:05:02;;;;;;;10.85;2.65;;;;;;;25.02;45.09;101037.81;16105757;19;131209;-51
2023/06/20 19:10:24;;;;;;;13.68;3.15;;;;;;;25.02;44.94;101028.56;16104527;19;130418;-43
2023/06/20 19:15:47;;;;;;;8.68;2.80;;;;;;;25.02;45.01;101037.81;16105664;19;129885;-44
2023/06/20 19:21:09;;;;;;;8.50;3.00;;;;;;;25.02;44.85;101035.03;16104202;19;131380;-42
2023/06/20 19:26:31;;;;;;;7.70;2.58;;;;;;;25.02;45.15;101031.38;16107516;19;129481;-46
2023/06/20 19:31:54;;;;;;;7.03;2.95;;;;;;;25.02;45.06;101045.38;16098045;19;130591;-47
2023/06/20 19:37:16;;;;;;;11.70;2.95;;;;;;;25.03;44.98;101052.63;16105968;19;129207;-42
2023/06/20 19:42:37;;;;;;;7.70;2.60;;;;;;;25.02;44.83;101059.34;16110538;19;130370;-45
2023/06/20 19:47:59;;;;;;;9.02;2.92;;;;;;;25.04;45.25;101062.72;16108077;19;129471;-44
2023/06/20 19:53:21;;;;;;;7.85;2.83;;;;;;;25.04;44.82;101073.91;16121197;19;130858;-45
2023/06/20 19:58:43;;;;;;;6.38;2.60;;;;;;;25.04;44.95;101076.72;16119470;19;132143;-45
2023/06/20 20:04:06;;;;;;;6.43;2.80;;;;;;;25.03;45.34;101086.22;16115961;19;131591;-46
2023/06/20 20:09:28;;;;;;;3.70;2.13;;;;;;;25.02;45.14;101090.16;16118869;19;130731;-44
2023/06/20 20:14:51;;;;;;;9.98;2.67;;;;;;;25.02;45.17;101087.34;16123586;19;129604;-46
2023/06/20 20:20:13;;;;;;;4.05;2.47;;;;;;;25.02;45.22;101084.56;16122085;19;136593;-43
2023/06/20 20:25:35;;;;;;;6.13;2.75;;;;;;;25.02;45.19;101090.16;16111758;19;130034;-42
2023/06/20 20:30:57;;;;;;;7.13;2.55;;;;;;;25.01;45.36;101077.28;16111858;19;131636;-42
2023/06/20 20:36:19;;;;;;;9.30;2.78;;;;;;;24.98;45.23;101063.88;16116426;19;129704;-41
2023/06/20 20:41:41;;;;;;;7.88;2.70;;;;;;;24.97;45.56;101091.00;16114752;19;130244;-40
2023/06/20 20:47:03;;;;;;;6.28;2.55;;;;;;;24.94;45.59;101076.75;16121363;19;129525;-39
2023/06/20 20:52:25;;;;;;;10.18;3.28;;;;;;;24.92;45.21;101096.66;16109876;19;131614;-42
2023/06/20 20:57:47;;;;;;;5.85;2.30;;;;;;;24.91;45.50;101100.56;16107405;19;130201;-42
2023/06/20 21:03:09;;;;;;;8.70;3.00;;;;;;;24.91;45.42;101127.69;16110661;19;130754;-44
2023/06/20 21:08:31;;;;;;;8.63;2.50;;;;;;;24.87;45.31;101122.63;16116356;19;131045;-42
2023/06/20 21:13:53;;;;;;;8.38;2.78;;;;;;;24.86;45.11;101120.13;16114525;19;129960;-46
2023/06/20 21:19:15;;;;;;;7.50;2.75;;;;;;;24.83;45.37;101109.50;16112638;19;130489;-42
2023/06/20 21:24:38;;;;;;;5.50;2.50;;;;;;;24.81;45.34;101123.78;16109048;19;130473;-43
2023/06/20 21:30:00;;;;;;;4.32;2.40;;;;;;;24.79;45.12;101116.81;16111358;19;131051;-43
2023/06/20 21:35:22;;;;;;;5.65;2.05;;;;;;;24.77;44.90;101119.88;16110175;19;131517;-43
2023/06/20 21:40:44;;;;;;;3.25;2.17;;;;;;;24.76;45.37;101114.56;16113902;19;130977;-43
2023/06/20 21:46:06;;;;;;;8.48;2.42;;;;;;;24.75;45.17;101118.47;16115662;19;130518;-48
2023/06/20 21:51:29;;;;;;;6.25;2.33;;;;;;;24.73;45.10;101122.41;16115979;19;130950;-43
2023/06/20 21:56:52;;;;;;;5.18;2.40;;;;;;;24.72;45.17;101126.31;16114212;19;129930;-44
2023/06/20 22:02:13;;;;;;;4.10;2.35;;;;;;;24.71;44.89;101121.84;16115470;19;130757;-44
2023/06/20 22:07:36;;;;;;;5.28;2.38;;;;;;;24.70;44.65;101116.53;16111987;19;131731;-44
2023/06/20 22:12:57;;;;;;;5.22;2.40;;;;;;;24.69;44.93;101109.25;16110927;19;130241;-41
2023/06/20 22:18:19;;;;;;;5.43;2.58;;;;;;;24.68;44.99;101102.00;16110213;19;129816;-41
2023/06/20 22:23:42;;;;;;;6.05;2.38;;;;;;;24.68;45.21;101113.19;16111790;19;131549;-41
2023/06/20 22:29:03;;;;;;;3.13;2.13;;;;;;;24.66;44.94;101099.50;16113101;19;130495;-44
2023/06/20 22:34:25;;;;;;;4.20;2.22;;;;;;;24.66;44.77;101104.22;16110552;19;131487;-43
2023/06/20 22:39:47;;;;;;;5.13;2.63;;;;;;;24.64;44.90;101129.69;16103792;19;131312;-41
2023/06/20 22:45:09;;;;;;;4.28;2.03;;;;;;;24.64;44.68;101137.25;16109437;19;130250;-43
2023/06/20 22:50:32;;;;;;;3.63;2.40;;;;;;;24.63;45.05;101129.97;16105457;19;130536;-41
2023/06/20 22:55:53;;;;;;;2.88;2.00;;;;;;;24.62;44.68;101139.47;16108583;19;129870;-42
2023/06/20 23:01:15;;;;;;;4.25;2.17;;;;;;;24.62;44.82;101147.88;16108648;19;132150;-44
2023/06/20 23:06:38;;;;;;;4.60;2.30;;;;;;;24.60;44.86;101141.75;16104632;19;131151;-42
2023/06/20 23:12:00;;;;;;;10.15;2.30;;;;;;;24.60;44.71;101150.13;16107068;19;131322;-43
2023/06/20 23:17:22;;;;;;;3.40;2.20;;;;;;;24.58;44.52;101159.63;16103665;19;131267;-41
2023/06/20 23:22:44;;;;;;;2.58;2.13;;;;;;;24.57;44.67;101163.56;16109874;19;129324;-42
2023/06/20 23:28:09;;;;;;;4.45;2.08;;;;;;;24.56;44.79;101167.47;16124199;19;130440;-44
2023/06/20 23:33:31;;;;;;;2.85;2.10;;;;;;;24.56;44.57;101173.06;16124035;19;129431;-44
2023/06/20 23:38:54;;;;;;;3.30;1.92;;;;;;;24.54;44.65;101163.28;16122908;19;131449;-44
2023/06/20 23:44:16;;;;;;;3.55;2.10;;;;;;;24.54;44.55;101160.50;16118892;19;131062;-42
2023/06/20 23:49:40;;;;;;;3.90;2.03;;;;;;;24.53;44.45;101168.03;16123211;19;133191;-43
2023/06/20 23:55:02;;;;;;;3.33;2.05;;;;;;;24.52;44.67;101166.34;16119363;19;129568;-44
